Time;durP1;ratioP1;P1;durP2;ratioP2;P2;SDS_P1;SDS_P2;PMS_P1;PMS_P2;Temp;Humidity;BMP_temperature;BMP_pressure;BME280_temperature;BME280_humidity;BME280_pressure;Samples;Min_cycle;Max_cycle;Signal;HPM_P1;HPM_P2
2021/01/03 00:01:11;;;;;;;;;;;;;;;;;;5055312;28;20389;-86
2021/01/03 00:03:38;;;;;;;;;;;;;;;;;;5065172;28;20390;-88
2021/01/03 00:06:05;;;;;;;;;;;;;;;;;;5078368;28;20367;-89
2021/01/03 00:08:31;;;;;;;;;;;;;;;;;;5063675;28;20811;-88
2021/01/03 00:10:58;;;;;;;;;;;;;;;;;;5057124;28;20396;-87
2021/01/03 00:13:24;;;;;;;;;;;;;;;;;;5059770;28;20875;-88
2021/01/03 00:15:50;;;;;;;;;;;;;;;;;;5050396;28;20375;-87
2021/01/03 00:18:17;;;;;;;;;;;;;;;;;;5054672;28;20392;-88
2021/01/03 00:20:43;;;;;;;;;;;;;;;;;;5052295;28;20380;-87
2021/01/03 00:23:10;;;;;;;;;;;;;;;;;;5057722;28;20407;-86
2021/01/03 00:25:36;;;;;;;;;;;;;;;;;;5041811;28;20388;-86
2021/01/03 00:28:02;;;;;;;;;;;;;;;;;;5048390;28;20419;-87
2021/01/03 00:30:29;;;;;;;;;;;;;;;;;;5041865;28;20412;-87
2021/01/03 00:32:55;;;;;;;;;;;;;;;;;;5049497;28;20379;-88
2021/01/03 00:35:21;;;;;;;;;;;;;;;;;;5048261;28;20407;-83
2021/01/03 00:37:48;;;;;;;;;;;;;;;;;;5039319;28;20856;-85
2021/01/03 00:40:14;;;;;;;;;;;;;;;;;;5047534;28;20400;-82
2021/01/03 00:42:41;;;;;;;;;;;;;;;;;;5046193;28;20391;-82
2021/01/03 00:45:07;;;;;;;;;;;;;;;;;;5054171;28;20472;-83
2021/01/03 00:47:33;;;;;;;;;;;;;;;;;;5053991;28;20382;-83
2021/01/03 00:50:00;;;;;;;;;;;;;;;;;;5056899;28;20408;-84
2021/01/03 00:52:26;;;;;;;;;;;;;;;;;;5043495;28;20395;-83
2021/01/03 00:54:52;;;;;;;;;;;;;;;;;;5050582;28;20408;-85
2021/01/03 00:57:21;;;;;;;;;;;;;;;;;;5054694;28;20396;-83
2021/01/03 00:59:47;;;;;;;;;;;;;;;;;;5049156;28;20487;-83
2021/01/03 01:02:14;;;;;;;;;;;;;;;;;;5039985;28;20384;-84
2021/01/03 01:04:40;;;;;;;;;;;;;;;;;;5036158;28;20395;-83
2021/01/03 01:07:07;;;;;;;;;;;;;;;;;;5036098;28;20380;-82
2021/01/03 01:09:33;;;;;;;;;;;;;;;;;;5040794;28;20457;-82
2021/01/03 01:11:59;;;;;;;;;;;;;;;;;;5049287;28;20408;-84
2021/01/03 01:14:26;;;;;;;;;;;;;;;;;;5052672;28;20883;-83
2021/01/03 01:16:52;;;;;;;;;;;;;;;;;;5034505;28;20854;-83
2021/01/03 01:19:19;;;;;;;;;;;;;;;;;;5047497;28;20407;-84
2021/01/03 01:21:46;;;;;;;;;;;;;;;;;;5050671;28;20396;-83
2021/01/03 01:24:12;;;;;;;;;;;;;;;;;;5042950;28;20387;-84
2021/01/03 01:26:38;;;;;;;;;;;;;;;;;;5045835;28;20392;-83
2021/01/03 01:29:05;;;;;;;;;;;;;;;;;;5053545;28;20411;-83
2021/01/03 01:31:31;;;;;;;;;;;;;;;;;;5039593;28;20797;-83
2021/01/03 01:33:57;;;;;;;;;;;;;;;;;;5044106;28;20407;-83
2021/01/03 01:36:24;;;;;;;;;;;;;;;;;;5053332;28;20394;-82
2021/01/03 01:38:50;;;;;;;;;;;;;;;;;;5049445;28;20477;-84
2021/01/03 01:41:16;;;;;;;;;;;;;;;;;;5028801;28;20395;-84
2021/01/03 01:43:43;;;;;;;;;;;;;;;;;;5039899;28;20383;-83
2021/01/03 01:46:09;;;;;;;;;;;;;;;;;;5054371;28;20840;-85
2021/01/03 01:48:36;;;;;;;;;;;;;;;;;;5050691;28;20399;-82
2021/01/03 01:51:04;;;;;;;;;;;;;;;;;;5049198;28;20399;-83
2021/01/03 01:53:31;;;;;;;;;;;;;;;;;;5042309;28;20482;-84
2021/01/03 01:55:57;;;;;;;;;;;;;;;;;;5040668;28;20386;-84
2021/01/03 01:58:24;;;;;;;;;;;;;;;;;;5043599;28;20402;-83
2021/01/03 02:00:50;;;;;;;;;;;;;;;;;;5041932;28;20411;-83
2021/01/03 02:03:16;;;;;;;;;;;;;;;;;;5043577;28;20410;-82
2021/01/03 02:05:43;;;;;;;;;;;;;;;;;;5046844;28;20852;-83
2021/01/03 02:08:09;;;;;;;;;;;;;;;;;;5044327;28;20404;-82
2021/01/03 02:10:35;;;;;;;;;;;;;;;;;;5041686;28;20461;-83
2021/01/03 02:13:02;;;;;;;;;;;;;;;;;;5048843;28;20868;-82
2021/01/03 02:15:28;;;;;;;;;;;;;;;;;;5044290;28;20399;-82
2021/01/03 02:17:55;;;;;;;;;;;;;;;;;;5052565;28;20377;-82
2021/01/03 02:20:21;;;;;;;;;;;;;;;;;;5083452;22;20423;-81
2021/01/03 02:22:47;;;;;;;;;;;;;;;;;;5050796;28;20381;-82
2021/01/03 02:25:14;;;;;;;;;;;;;;;;;;5043134;28;20445;-82
2021/01/03 02:27:40;;;;;;;;;;;;;;;;;;5043792;28;20372;-82
2021/01/03 02:30:06;;;;;;;;;;;;;;;;;;5037874;28;20417;-82
2021/01/03 02:32:33;;;;;;;;;;;;;;;;;;5037655;28;20472;-82
2021/01/03 02:34:59;;;;;;;;;;;;;;;;;;5037639;28;20543;-82
2021/01/03 02:37:26;;;;;;;;;;;;;;;;;;5038755;28;20441;-81
2021/01/03 02:39:52;;;;;;;;;;;;;;;;;;5042763;28;20406;-81
2021/01/03 02:42:18;;;;;;;;;;;;;;;;;;5042035;28;20387;-81
2021/01/03 02:44:45;;;;;;;;;;;;;;;;;;5044712;28;20379;-82
2021/01/03 02:47:11;;;;;;;;;;;;;;;;;;5042102;28;20383;-81
2021/01/03 02:49:37;;;;;;;;;;;;;;;;;;5047555;28;20386;-82
2021/01/03 02:52:04;;;;;;;;;;;;;;;;;;5056350;28;20452;-82
2021/01/03 02:54:30;;;;;;;;;;;;;;;;;;5036944;28;20439;-81
2021/01/03 02:56:56;;;;;;;;;;;;;;;;;;5035451;28;20383;-81
2021/01/03 02:59:23;;;;;;;;;;;;;;;;;;5029782;28;20411;-81
2021/01/03 03:01:50;;;;;;;;;;;;;;;;;;5041713;28;20377;-82
2021/01/03 03:04:16;;;;;;;;;;;;;;;;;;5059404;28;20374;-82
2021/01/03 03:06:42;;;;;;;;;;;;;;;;;;5037483;28;20440;-82
2021/01/03 03:09:09;;;;;;;;;;;;;;;;;;5036061;28;20387;-82
2021/01/03 03:11:35;;;;;;;;;;;;;;;;;;5035826;28;20383;-83
2021/01/03 03:14:02;;;;;;;;;;;;;;;;;;5036414;28;20398;-83
2021/01/03 03:16:28;;;;;;;;;;;;;;;;;;5035718;28;20753;-82
2021/01/03 03:18:54;;;;;;;;;;;;;;;;;;5036690;28;20383;-82
2021/01/03 03:21:21;;;;;;;;;;;;;;;;;;5034167;28;20391;-82
2021/01/03 03:23:47;;;;;;;;;;;;;;;;;;5034999;28;20387;-82
2021/01/03 03:26:13;;;;;;;;;;;;;;;;;;5035312;28;20390;-82
2021/01/03 03:28:40;;;;;;;;;;;;;;;;;;5035036;28;20387;-82
2021/01/03 03:31:06;;;;;;;;;;;;;;;;;;5035187;28;20407;-82
2021/01/03 03:33:33;;;;;;;;;;;;;;;;;;5035819;28;20387;-82
2021/01/03 03:35:59;;;;;;;;;;;;;;;;;;5026131;28;20413;-82
2021/01/03 03:38:25;;;;;;;;;;;;;;;;;;5030043;28;20391;-82
2021/01/03 03:40:52;;;;;;;;;;;;;;;;;;5034164;28;20406;-83
2021/01/03 03:43:18;;;;;;;;;;;;;;;;;;5034483;28;20395;-84
2021/01/03 03:45:44;;;;;;;;;;;;;;;;;;5034562;28;20391;-83
2021/01/03 03:48:11;;;;;;;;;;;;;;;;;;5035089;28;20387;-83
2021/01/03 03:50:37;;;;;;;;;;;;;;;;;;5033682;28;20947;-83
2021/01/03 03:53:04;;;;;;;;;;;;;;;;;;5035345;28;20390;-83
2021/01/03 03:55:30;;;;;;;;;;;;;;;;;;5035131;28;20403;-83
2021/01/03 03:57:56;;;;;;;;;;;;;;;;;;5035075;28;20394;-82
2021/01/03 04:00:23;;;;;;;;;;;;;;;;;;5032646;28;20416;-83
2021/01/03 04:02:49;;;;;;;;;;;;;;;;;;5034646;28;20398;-82
2021/01/03 04:05:15;;;;;;;;;;;;;;;;;;5032199;28;20429;-83
2021/01/03 04:07:42;;;;;;;;;;;;;;;;;;5028351;28;20393;-83
2021/01/03 04:10:08;;;;;;;;;;;;;;;;;;5034171;28;20476;-83
2021/01/03 04:12:34;;;;;;;;;;;;;;;;;;5034837;28;20390;-83
2021/01/03 04:15:01;;;;;;;;;;;;;;;;;;5034742;28;20410;-84
2021/01/03 04:17:27;;;;;;;;;;;;;;;;;;5034305;28;20387;-83
2021/01/03 04:19:53;;;;;;;;;;;;;;;;;;5033553;28;20417;-83
2021/01/03 04:22:20;;;;;;;;;;;;;;;;;;5033397;28;20382;-81
2021/01/03 04:24:46;;;;;;;;;;;;;;;;;;5024086;28;20383;-84
2021/01/03 04:27:13;;;;;;;;;;;;;;;;;;5034880;28;20425;-84
2021/01/03 04:29:39;;;;;;;;;;;;;;;;;;5033864;28;20457;-83
2021/01/03 04:32:06;;;;;;;;;;;;;;;;;;5034871;28;20379;-84
2021/01/03 04:34:32;;;;;;;;;;;;;;;;;;5035345;28;20885;-83
2021/01/03 04:36:58;;;;;;;;;;;;;;;;;;5034175;28;20413;-84
2021/01/03 04:39:25;;;;;;;;;;;;;;;;;;5033979;28;20398;-83
2021/01/03 04:41:51;;;;;;;;;;;;;;;;;;5034029;28;20391;-83
2021/01/03 04:44:17;;;;;;;;;;;;;;;;;;5034220;28;20382;-84
2021/01/03 04:46:44;;;;;;;;;;;;;;;;;;5036176;28;20382;-83
2021/01/03 04:49:10;;;;;;;;;;;;;;;;;;5037959;28;20394;-83
2021/01/03 04:51:36;;;;;;;;;;;;;;;;;;5037891;28;20406;-83
2021/01/03 04:54:05;;;;;;;;;;;;;;;;;;5038320;28;20460;-84
2021/01/03 04:56:31;;;;;;;;;;;;;;;;;;5061899;28;20363;-84
2021/01/03 04:58:57;;;;;;;;;;;;;;;;;;5049935;28;20375;-84
2021/01/03 05:01:24;;;;;;;;;;;;;;;;;;5038231;28;20409;-83
2021/01/03 05:03:50;;;;;;;;;;;;;;;;;;5036917;28;20384;-84
2021/01/03 05:06:17;;;;;;;;;;;;;;;;;;5036638;28;20925;-84
2021/01/03 05:08:43;;;;;;;;;;;;;;;;;;5037689;28;20390;-84
2021/01/03 05:11:09;;;;;;;;;;;;;;;;;;5038064;28;20402;-84
2021/01/03 05:13:36;;;;;;;;;;;;;;;;;;5038723;28;20383;-83
2021/01/03 05:16:02;;;;;;;;;;;;;;;;;;5037650;28;20387;-83
2021/01/03 05:18:28;;;;;;;;;;;;;;;;;;5036535;28;20437;-84
2021/01/03 05:20:55;;;;;;;;;;;;;;;;;;5037922;28;20425;-84
2021/01/03 05:23:21;;;;;;;;;;;;;;;;;;5038087;28;20820;-84
2021/01/03 05:25:47;;;;;;;;;;;;;;;;;;5043904;28;20387;-84
2021/01/03 05:28:14;;;;;;;;;;;;;;;;;;5043261;28;20393;-84
2021/01/03 05:30:40;;;;;;;;;;;;;;;;;;5047205;28;20399;-82
2021/01/03 05:33:07;;;;;;;;;;;;;;;;;;5055510;28;20383;-84
2021/01/03 05:35:33;;;;;;;;;;;;;;;;;;5040001;28;20411;-84
2021/01/03 05:38:00;;;;;;;;;;;;;;;;;;5038569;28;20391;-84
2021/01/03 05:40:26;;;;;;;;;;;;;;;;;;5039206;28;20775;-84
2021/01/03 05:42:52;;;;;;;;;;;;;;;;;;5039974;28;20395;-84
2021/01/03 05:45:19;;;;;;;;;;;;;;;;;;5040778;28;20383;-81
2021/01/03 05:47:45;;;;;;;;;;;;;;;;;;5040824;28;20410;-84
2021/01/03 05:50:11;;;;;;;;;;;;;;;;;;5039948;28;20415;-83
2021/01/03 05:52:38;;;;;;;;;;;;;;;;;;5041704;28;20389;-83
2021/01/03 05:55:04;;;;;;;;;;;;;;;;;;5040442;28;20407;-84
2021/01/03 05:57:30;;;;;;;;;;;;;;;;;;5040078;28;20387;-83
2021/01/03 05:59:57;;;;;;;;;;;;;;;;;;5039926;28;20404;-84
2021/01/03 06:02:23;;;;;;;;;;;;;;;;;;5039029;28;20402;-83
2021/01/03 06:04:50;;;;;;;;;;;;;;;;;;5040572;28;20376;-82
2021/01/03 06:07:16;;;;;;;;;;;;;;;;;;5039940;28;20392;-83
2021/01/03 06:09:42;;;;;;;;;;;;;;;;;;5039924;28;20419;-83
2021/01/03 06:12:09;;;;;;;;;;;;;;;;;;5039723;28;20441;-84
2021/01/03 06:14:35;;;;;;;;;;;;;;;;;;5037507;28;20395;-84
2021/01/03 06:17:01;;;;;;;;;;;;;;;;;;5040037;28;20387;-84
2021/01/03 06:19:28;;;;;;;;;;;;;;;;;;5040485;28;20415;-84
2021/01/03 06:21:54;;;;;;;;;;;;;;;;;;5038402;28;20387;-82
2021/01/03 06:24:21;;;;;;;;;;;;;;;;;;5037586;28;20379;-83
2021/01/03 06:26:47;;;;;;;;;;;;;;;;;;5036934;28;20387;-84
2021/01/03 06:29:13;;;;;;;;;;;;;;;;;;5035147;28;20860;-84
2021/01/03 06:31:40;;;;;;;;;;;;;;;;;;5031963;28;20387;-83
2021/01/03 06:34:06;;;;;;;;;;;;;;;;;;5037612;28;20411;-82
2021/01/03 06:36:32;;;;;;;;;;;;;;;;;;5036526;28;20848;-83
2021/01/03 06:38:59;;;;;;;;;;;;;;;;;;5036083;28;20396;-83
2021/01/03 06:41:25;;;;;;;;;;;;;;;;;;5037415;28;20383;-83
2021/01/03 06:43:51;;;;;;;;;;;;;;;;;;5035943;28;20387;-83
2021/01/03 06:46:18;;;;;;;;;;;;;;;;;;5035830;28;20745;-82
2021/01/03 06:48:44;;;;;;;;;;;;;;;;;;5050830;28;20399;-83
2021/01/03 06:51:11;;;;;;;;;;;;;;;;;;5056196;28;20771;-83
2021/01/03 06:53:37;;;;;;;;;;;;;;;;;;5040795;28;20380;-85
2021/01/03 06:56:03;;;;;;;;;;;;;;;;;;5039975;28;20399;-85
2021/01/03 06:58:30;;;;;;;;;;;;;;;;;;5036805;28;20442;-81
2021/01/03 07:00:56;;;;;;;;;;;;;;;;;;5036488;28;20403;-82
2021/01/03 07:03:22;;;;;;;;;;;;;;;;;;5036932;28;20391;-81
2021/01/03 07:05:49;;;;;;;;;;;;;;;;;;5036531;28;20398;-82
2021/01/03 07:08:15;;;;;;;;;;;;;;;;;;5037293;28;20392;-82
2021/01/03 07:10:42;;;;;;;;;;;;;;;;;;5038046;28;20411;-81
2021/01/03 07:13:08;;;;;;;;;;;;;;;;;;5037061;28;20482;-85
2021/01/03 07:15:34;;;;;;;;;;;;;;;;;;5038667;28;20399;-83
2021/01/03 07:18:01;;;;;;;;;;;;;;;;;;5035180;28;20387;-82
2021/01/03 07:20:27;;;;;;;;;;;;;;;;;;5035050;28;20423;-81
2021/01/03 07:22:53;;;;;;;;;;;;;;;;;;5036132;28;20388;-81
2021/01/03 07:25:20;;;;;;;;;;;;;;;;;;5036241;28;20387;-83
2021/01/03 07:27:46;;;;;;;;;;;;;;;;;;5036267;28;20784;-82
2021/01/03 07:38:59;;;;;;;;;;;;;;;;;;5034543;28;20399;-82
2021/01/03 07:44:12;;;;;;;;;;;;;;;;;;5030857;28;20863;-83
2021/01/03 07:46:38;;;;;;;;;;;;;;;;;;5031051;28;20403;-84
2021/01/03 07:49:24;;;;;;;;;;;;;;;;;;5031399;28;20387;-84
2021/01/03 07:52:02;;;;;;;;;;;;;;;;;;5029524;28;20986;-84
2021/01/03 07:54:29;;;;;;;;;;;;;;;;;;5032180;28;20465;-84
2021/01/03 07:56:55;;;;;;;;;;;;;;;;;;5033231;28;20395;-84
2021/01/03 07:59:21;;;;;;;;;;;;;;;;;;5035635;28;20411;-85
2021/01/03 08:01:48;;;;;;;;;;;;;;;;;;5044437;28;20374;-84
2021/01/03 08:04:14;;;;;;;;;;;;;;;;;;5050190;28;20844;-85
2021/01/03 08:06:41;;;;;;;;;;;;;;;;;;5036199;28;20391;-84
2021/01/03 08:09:07;;;;;;;;;;;;;;;;;;5033327;28;20395;-84
2021/01/03 08:11:33;;;;;;;;;;;;;;;;;;5035383;28;20390;-83
2021/01/03 08:14:00;;;;;;;;;;;;;;;;;;5033371;28;20861;-83
2021/01/03 08:16:26;;;;;;;;;;;;;;;;;;5035233;28;20396;-84
2021/01/03 08:18:52;;;;;;;;;;;;;;;;;;5036771;28;20391;-83
2021/01/03 08:21:19;;;;;;;;;;;;;;;;;;5040058;28;20423;-83
2021/01/03 08:23:45;;;;;;;;;;;;;;;;;;5039778;28;20767;-84
2021/01/03 08:26:11;;;;;;;;;;;;;;;;;;5034240;28;20391;-84
2021/01/03 08:28:38;;;;;;;;;;;;;;;;;;5033139;28;20391;-85
2021/01/03 08:31:04;;;;;;;;;;;;;;;;;;5036147;28;20411;-85
2021/01/03 08:33:30;;;;;;;;;;;;;;;;;;5030379;28;20398;-83
2021/01/03 08:35:57;;;;;;;;;;;;;;;;;;5024205;28;20413;-83
2021/01/03 08:38:23;;;;;;;;;;;;;;;;;;5026817;28;20438;-84
2021/01/03 08:40:50;;;;;;;;;;;;;;;;;;5033634;28;20426;-83
2021/01/03 08:43:16;;;;;;;;;;;;;;;;;;5050546;28;20387;-84
2021/01/03 08:45:42;;;;;;;;;;;;;;;;;;5045366;28;20439;-84
2021/01/03 08:48:09;;;;;;;;;;;;;;;;;;5033576;28;20395;-84
2021/01/03 08:50:35;;;;;;;;;;;;;;;;;;5034433;28;20892;-84
2021/01/03 08:53:01;;;;;;;;;;;;;;;;;;5034382;28;20391;-84
2021/01/03 08:55:28;;;;;;;;;;;;;;;;;;5033352;28;20399;-84
2021/01/03 08:57:54;;;;;;;;;;;;;;;;;;5035171;28;20387;-85
2021/01/03 09:00:24;;;;;;;;;;;;;;;;;;5036263;28;20407;-84
2021/01/03 09:02:50;;;;;;;;;;;;;;;;;;5035502;28;20392;-85
2021/01/03 09:05:16;;;;;;;;;;;;;;;;;;5067493;22;20472;-80
2021/01/03 09:07:43;;;;;;;;;;;;;;;;;;5071712;28;20373;-80
2021/01/03 09:10:09;;;;;;;;;;;;;;;;;;5066316;28;20775;-80
2021/01/03 09:12:36;;;;;;;;;;;;;;;;;;5066777;28;20392;-79
2021/01/03 09:15:02;;;;;;;;;;;;;;;;;;5066619;28;20418;-79
2021/01/03 09:17:28;;;;;;;;;;;;;;;;;;5052882;28;20385;-79
2021/01/03 09:19:55;;;;;;;;;;;;;;;;;;5061961;28;20402;-80
2021/01/03 09:22:21;;;;;;;;;;;;;;;;;;5044332;28;20376;-80
2021/01/03 09:24:48;;;;;;;;;;;;;;;;;;5051722;28;20385;-80
2021/01/03 09:27:14;;;;;;;;;;;;;;;;;;5052527;28;20438;-80
2021/01/03 09:29:41;;;;;;;;;;;;;;;;;;5047021;28;20385;-81
2021/01/03 09:32:07;;;;;;;;;;;;;;;;;;5046826;28;20395;-85
2021/01/03 09:34:34;;;;;;;;;;;;;;;;;;5021400;28;20755;-85
2021/01/03 09:37:00;;;;;;;;;;;;;;;;;;5031804;28;20460;-89
2021/01/03 09:39:27;;;;;;;;;;;;;;;;;;5034480;28;20386;-87
2021/01/03 09:41:53;;;;;;;;;;;;;;;;;;5030270;28;20390;-87
2021/01/03 09:44:20;;;;;;;;;;;;;;;;;;5049966;28;20389;-88
2021/01/03 09:46:46;;;;;;;;;;;;;;;;;;5050803;28;20407;-87
2021/01/03 09:49:13;;;;;;;;;;;;;;;;;;5053284;28;20380;-89
2021/01/03 09:51:39;;;;;;;;;;;;;;;;;;5049880;28;20923;-88
2021/01/03 09:54:05;;;;;;;;;;;;;;;;;;5048464;28;20402;-87
2021/01/03 09:56:32;;;;;;;;;;;;;;;;;;5055108;28;20814;-88
2021/01/03 09:58:58;;;;;;;;;;;;;;;;;;5053897;28;20380;-88
2021/01/03 10:01:25;;;;;;;;;;;;;;;;;;5049882;28;20392;-88
2021/01/03 10:03:51;;;;;;;;;;;;;;;;;;5065654;28;20389;-88
2021/01/03 10:06:18;;;;;;;;;;;;;;;;;;5071367;28;20413;-88
2021/01/03 10:08:44;;;;;;;;;;;;;;;;;;5055689;28;20395;-89
2021/01/03 10:11:11;;;;;;;;;;;;;;;;;;5056941;28;20841;-86
2021/01/03 10:13:37;;;;;;;;;;;;;;;;;;5051811;28;20392;-87
2021/01/03 10:16:03;;;;;;;;;;;;;;;;;;5041801;28;20411;-87
2021/01/03 10:18:30;;;;;;;;;;;;;;;;;;5039824;28;20384;-87
2021/01/03 10:20:56;;;;;;;;;;;;;;;;;;5050513;28;20383;-84
2021/01/03 10:23:23;;;;;;;;;;;;;;;;;;5044865;28;20466;-82
2021/01/03 10:25:49;;;;;;;;;;;;;;;;;;5049087;28;20392;-84
2021/01/03 10:28:15;;;;;;;;;;;;;;;;;;5079239;28;20369;-83
2021/01/03 10:30:42;;;;;;;;;;;;;;;;;;5081304;28;20373;-83
2021/01/03 10:33:08;;;;;;;;;;;;;;;;;;5075040;28;20392;-85
2021/01/03 10:35:35;;;;;;;;;;;;;;;;;;5053541;28;20423;-84
2021/01/03 10:38:01;;;;;;;;;;;;;;;;;;5040517;28;20384;-85
2021/01/03 10:40:28;;;;;;;;;;;;;;;;;;5046423;28;20394;-84
2021/01/03 10:42:54;;;;;;;;;;;;;;;;;;5037708;28;20383;-84
2021/01/03 10:45:21;;;;;;;;;;;;;;;;;;5037659;28;20415;-85
2021/01/03 10:47:47;;;;;;;;;;;;;;;;;;5038506;28;20874;-84
2021/01/03 10:50:13;;;;;;;;;;;;;;;;;;5038256;28;20392;-86
2021/01/03 10:52:40;;;;;;;;;;;;;;;;;;5037123;28;20395;-86
2021/01/03 10:55:17;;;;;;;;;;;;;;;;;;5048299;28;20431;-84
2021/01/03 10:57:50;;;;;;;;;;;;;;;;;;5031064;28;20480;-85
2021/01/03 11:00:16;;;;;;;;;;;;;;;;;;5042533;28;20381;-86
2021/01/03 11:02:43;;;;;;;;;;;;;;;;;;5040350;28;20457;-86
2021/01/03 11:05:10;;;;;;;;;;;;;;;;;;5056630;28;20415;-86
2021/01/03 11:07:36;;;;;;;;;;;;;;;;;;5038843;28;20393;-85
2021/01/03 11:10:02;;;;;;;;;;;;;;;;;;5047203;28;20410;-86
2021/01/03 11:12:29;;;;;;;;;;;;;;;;;;5045313;28;20434;-85
2021/01/03 11:14:56;;;;;;;;;;;;;;;;;;5037903;28;20820;-87
2021/01/03 11:17:23;;;;;;;;;;;;;;;;;;5047450;28;20396;-87
2021/01/03 11:19:49;;;;;;;;;;;;;;;;;;5038707;28;20390;-87
2021/01/03 11:22:18;;;;;;;;;;;;;;;;;;5039417;28;20402;-86
2021/01/03 11:24:44;;;;;;;;;;;;;;;;;;5046844;28;20391;-86
2021/01/03 11:27:11;;;;;;;;;;;;;;;;;;5059092;28;20391;-85
2021/01/03 11:29:37;;;;;;;;;;;;;;;;;;5056709;28;20391;-84
2021/01/03 11:32:04;;;;;;;;;;;;;;;;;;5044023;28;20410;-83
2021/01/03 11:34:30;;;;;;;;;;;;;;;;;;5040456;28;20412;-83
2021/01/03 11:36:58;;;;;;;;;;;;;;;;;;5050661;28;20836;-85
2021/01/03 11:39:24;;;;;;;;;;;;;;;;;;5031103;28;20441;-84
2021/01/03 11:41:51;;;;;;;;;;;;;;;;;;5050918;28;20387;-84
2021/01/03 11:44:18;;;;;;;;;;;;;;;;;;5056195;28;20407;-86
2021/01/03 11:46:44;;;;;;;;;;;;;;;;;;5045366;28;20404;-85
2021/01/03 11:49:10;;;;;;;;;;;;;;;;;;5039738;28;20387;-85
2021/01/03 11:51:38;;;;;;;;;;;;;;;;;;5047134;28;20387;-85
2021/01/03 11:54:04;;;;;;;;;;;;;;;;;;5049130;28;20383;-85
2021/01/03 11:56:31;;;;;;;;;;;;;;;;;;5041468;28;20406;-85
2021/01/03 11:58:57;;;;;;;;;;;;;;;;;;5043023;28;20387;-85
2021/01/03 12:01:24;;;;;;;;;;;;;;;;;;5046538;28;20444;-84
2021/01/03 12:03:50;;;;;;;;;;;;;;;;;;5043010;28;20373;-85
2021/01/03 12:06:16;;;;;;;;;;;;;;;;;;5057844;28;20443;-85
2021/01/03 12:08:50;;;;;;;;;;;;;;;;;;5064061;28;20367;-85
2021/01/03 12:11:16;;;;;;;;;;;;;;;;;;5059055;28;20374;-85
2021/01/03 12:13:43;;;;;;;;;;;;;;;;;;5047460;28;20394;-85
2021/01/03 12:16:11;;;;;;;;;;;;;;;;;;5044270;28;20554;-84
2021/01/03 12:18:37;;;;;;;;;;;;;;;;;;5053125;28;20425;-86
2021/01/03 12:21:04;;;;;;;;;;;;;;;;;;5060326;28;20902;-85
2021/01/03 12:23:30;;;;;;;;;;;;;;;;;;5047421;28;20367;-85
2021/01/03 12:25:57;;;;;;;;;;;;;;;;;;5057435;28;20406;-84
2021/01/03 12:28:23;;;;;;;;;;;;;;;;;;5054925;28;20408;-85
2021/01/03 12:30:49;;;;;;;;;;;;;;;;;;5050852;28;20372;-84
2021/01/03 12:33:16;;;;;;;;;;;;;;;;;;5054150;28;20369;-85
2021/01/03 12:35:43;;;;;;;;;;;;;;;;;;5055361;28;20410;-85
2021/01/03 12:38:10;;;;;;;;;;;;;;;;;;5050743;28;20397;-84
2021/01/03 12:40:36;;;;;;;;;;;;;;;;;;5041810;28;20890;-89
2021/01/03 12:43:03;;;;;;;;;;;;;;;;;;5051990;28;20391;-85
2021/01/03 12:45:29;;;;;;;;;;;;;;;;;;5041287;28;20419;-88
2021/01/03 12:47:56;;;;;;;;;;;;;;;;;;5048567;28;20389;-88
2021/01/03 12:50:28;;;;;;;;;;;;;;;;;;5073210;28;20364;-91
2021/01/03 12:52:54;;;;;;;;;;;;;;;;;;5078004;28;20376;-90
2021/01/03 12:55:21;;;;;;;;;;;;;;;;;;5075342;28;20408;-88
2021/01/03 12:57:47;;;;;;;;;;;;;;;;;;5066578;28;20475;-90
2021/01/03 13:00:14;;;;;;;;;;;;;;;;;;5067087;28;20388;-88
2021/01/03 13:02:40;;;;;;;;;;;;;;;;;;5064823;28;20376;-88
2021/01/03 13:05:07;;;;;;;;;;;;;;;;;;5065565;28;20504;-89
2021/01/03 13:07:33;;;;;;;;;;;;;;;;;;5068736;28;20449;-89
2021/01/03 13:10:00;;;;;;;;;;;;;;;;;;5069793;28;20398;-89
2021/01/03 13:12:26;;;;;;;;;;;;;;;;;;5071593;28;20402;-88
2021/01/03 13:14:53;;;;;;;;;;;;;;;;;;5071731;28;20408;-89
2021/01/03 13:17:19;;;;;;;;;;;;;;;;;;5070579;28;20482;-88
2021/01/03 13:19:46;;;;;;;;;;;;;;;;;;5072500;28;20444;-88
2021/01/03 13:22:12;;;;;;;;;;;;;;;;;;5071315;28;20451;-89
2021/01/03 13:24:39;;;;;;;;;;;;;;;;;;5072520;28;20486;-86
2021/01/03 13:27:05;;;;;;;;;;;;;;;;;;5070005;28;20396;-88
2021/01/03 13:29:32;;;;;;;;;;;;;;;;;;5070103;28;20391;-87
2021/01/03 13:31:58;;;;;;;;;;;;;;;;;;5072399;28;20384;-87
2021/01/03 13:34:25;;;;;;;;;;;;;;;;;;5072483;28;20430;-87
2021/01/03 13:36:51;;;;;;;;;;;;;;;;;;5070365;28;20408;-88
2021/01/03 13:39:18;;;;;;;;;;;;;;;;;;5068760;28;20399;-87
2021/01/03 13:41:44;;;;;;;;;;;;;;;;;;5066626;28;20392;-87
2021/01/03 13:44:11;;;;;;;;;;;;;;;;;;5069735;28;20388;-87
2021/01/03 13:46:38;;;;;;;;;;;;;;;;;;5081728;28;20795;-89
2021/01/03 13:49:04;;;;;;;;;;;;;;;;;;5082103;28;20372;-90
2021/01/03 13:51:31;;;;;;;;;;;;;;;;;;5080105;28;20388;-88
2021/01/03 13:53:57;;;;;;;;;;;;;;;;;;5072649;28;20392;-88
2021/01/03 13:56:23;;;;;;;;;;;;;;;;;;5072688;28;20423;-88
2021/01/03 13:58:51;;;;;;;;;;;;;;;;;;5071740;28;20392;-88
2021/01/03 14:01:17;;;;;;;;;;;;;;;;;;5071991;28;20437;-87
2021/01/03 14:03:44;;;;;;;;;;;;;;;;;;5072819;28;20456;-88
2021/01/03 14:06:10;;;;;;;;;;;;;;;;;;5071673;28;20461;-88
2021/01/03 14:08:36;;;;;;;;;;;;;;;;;;5070601;28;20396;-87
2021/01/03 14:11:03;;;;;;;;;;;;;;;;;;5044299;28;20390;-87
2021/01/03 14:13:29;;;;;;;;;;;;;;;;;;5056540;28;20387;-88
2021/01/03 14:16:13;;;;;;;;;;;;;;;;;;5061515;28;20427;-88
2021/01/03 14:18:40;;;;;;;;;;;;;;;;;;5059509;28;20407;-86
2021/01/03 14:21:07;;;;;;;;;;;;;;;;;;5054772;28;20409;-86
2021/01/03 14:23:33;;;;;;;;;;;;;;;;;;5056513;28;20379;-86
2021/01/03 14:26:00;;;;;;;;;;;;;;;;;;5058994;28;20418;-86
2021/01/03 14:28:26;;;;;;;;;;;;;;;;;;5059190;28;20424;-86
2021/01/03 14:30:53;;;;;;;;;;;;;;;;;;5056591;28;20478;-87
2021/01/03 14:33:19;;;;;;;;;;;;;;;;;;5055883;28;20458;-86
2021/01/03 14:35:46;;;;;;;;;;;;;;;;;;5049385;28;20409;-87
2021/01/03 14:38:12;;;;;;;;;;;;;;;;;;5046052;28;20394;-87
2021/01/03 14:40:39;;;;;;;;;;;;;;;;;;5054424;28;20785;-87
2021/01/03 14:43:05;;;;;;;;;;;;;;;;;;5055386;28;20391;-88
2021/01/03 14:45:32;;;;;;;;;;;;;;;;;;5070715;28;20455;-88
2021/01/03 14:48:00;;;;;;;;;;;;;;;;;;5065710;28;20425;-87
2021/01/03 14:50:26;;;;;;;;;;;;;;;;;;5055424;28;20399;-87
2021/01/03 14:52:53;;;;;;;;;;;;;;;;;;5051449;28;20771;-87
2021/01/03 14:55:19;;;;;;;;;;;;;;;;;;5058855;28;20929;-88
2021/01/03 14:57:47;;;;;;;;;;;;;;;;;;5056908;28;20402;-87
2021/01/03 15:00:13;;;;;;;;;;;;;;;;;;5057893;28;20396;-85
2021/01/03 15:02:40;;;;;;;;;;;;;;;;;;5055781;28;20398;-86
2021/01/03 15:05:06;;;;;;;;;;;;;;;;;;5055165;28;20412;-86
2021/01/03 15:07:33;;;;;;;;;;;;;;;;;;5061011;28;20361;-84
2021/01/03 15:09:59;;;;;;;;;;;;;;;;;;5064593;28;20390;-85
2021/01/03 15:12:26;;;;;;;;;;;;;;;;;;5059606;28;20397;-87
2021/01/03 15:14:52;;;;;;;;;;;;;;;;;;5060201;28;20411;-84
2021/01/03 15:17:20;;;;;;;;;;;;;;;;;;5053165;28;20399;-84
2021/01/03 15:19:46;;;;;;;;;;;;;;;;;;5062372;28;20425;-80
2021/01/03 15:22:13;;;;;;;;;;;;;;;;;;5053640;28;20384;-82
2021/01/03 15:24:39;;;;;;;;;;;;;;;;;;5053281;28;20391;-81
2021/01/03 15:27:05;;;;;;;;;;;;;;;;;;5057378;28;20459;-81
2021/01/03 15:29:34;;;;;;;;;;;;;;;;;;5057827;28;20391;-82
2021/01/03 15:32:00;;;;;;;;;;;;;;;;;;5042031;28;20380;-82
2021/01/03 15:34:27;;;;;;;;;;;;;;;;;;5052259;28;20821;-83
2021/01/03 15:36:53;;;;;;;;;;;;;;;;;;5045853;28;20402;-79
2021/01/03 15:39:19;;;;;;;;;;;;;;;;;;5055566;28;20391;-79
2021/01/03 15:41:46;;;;;;;;;;;;;;;;;;5053408;28;20379;-81
2021/01/03 15:44:12;;;;;;;;;;;;;;;;;;5044903;28;20390;-81
2021/01/03 15:46:39;;;;;;;;;;;;;;;;;;5037018;28;20414;-81
2021/01/03 15:49:05;;;;;;;;;;;;;;;;;;5037169;28;20391;-84
2021/01/03 15:51:31;;;;;;;;;;;;;;;;;;5038756;28;20763;-81
2021/01/03 15:53:58;;;;;;;;;;;;;;;;;;5031974;28;20386;-82
2021/01/03 15:56:24;;;;;;;;;;;;;;;;;;5034185;28;20788;-81
2021/01/03 15:58:51;;;;;;;;;;;;;;;;;;5035823;28;20383;-83
2021/01/03 16:01:17;;;;;;;;;;;;;;;;;;5035867;28;20395;-82
2021/01/03 16:03:44;;;;;;;;;;;;;;;;;;5054275;28;20875;-82
2021/01/03 16:06:10;;;;;;;;;;;;;;;;;;5049357;28;20919;-81
2021/01/03 16:08:37;;;;;;;;;;;;;;;;;;5047183;28;20391;-84
2021/01/03 16:11:03;;;;;;;;;;;;;;;;;;5035950;28;20799;-83
2021/01/03 16:13:31;;;;;;;;;;;;;;;;;;5042305;28;20403;-85
2021/01/03 16:15:58;;;;;;;;;;;;;;;;;;5035001;28;20426;-81
2021/01/03 16:18:25;;;;;;;;;;;;;;;;;;5035400;28;20398;-82
2021/01/03 16:20:52;;;;;;;;;;;;;;;;;;5035428;28;20395;-84
2021/01/03 16:23:18;;;;;;;;;;;;;;;;;;5026805;28;20387;-82
2021/01/03 16:25:45;;;;;;;;;;;;;;;;;;5034833;28;20445;-83
2021/01/03 16:28:12;;;;;;;;;;;;;;;;;;5038529;28;20395;-84
2021/01/03 16:30:38;;;;;;;;;;;;;;;;;;5041621;28;20406;-82
2021/01/03 16:33:05;;;;;;;;;;;;;;;;;;5035447;28;20391;-82
2021/01/03 16:35:31;;;;;;;;;;;;;;;;;;5034936;28;20419;-82
2021/01/03 16:37:58;;;;;;;;;;;;;;;;;;5038967;28;20478;-81
2021/01/03 16:40:25;;;;;;;;;;;;;;;;;;5038282;28;20379;-83
2021/01/03 16:42:51;;;;;;;;;;;;;;;;;;5034864;28;20419;-83
2021/01/03 16:45:18;;;;;;;;;;;;;;;;;;5035257;28;20410;-83
2021/01/03 16:47:44;;;;;;;;;;;;;;;;;;5035850;28;20419;-82
2021/01/03 16:50:11;;;;;;;;;;;;;;;;;;5037807;28;20755;-82
2021/01/03 16:52:37;;;;;;;;;;;;;;;;;;5038214;28;20826;-83